Time;durP1;ratioP1;P1;durP2;ratioP2;P2;SDS_P1;SDS_P2;PMS_P1;PMS_P2;Temp;Humidity;BMP_temperature;BMP_pressure;BME280_temperature;BME280_humidity;BME280_pressure;Samples;Min_cycle;Max_cycle;Signal;HPM_P1;HPM_P2
2022/09/03 00:01:10;;;;;;;7.43;5.37;;;;;;;19.75;89.90;94629.06;4914628;29;20250;-82
2022/09/03 00:03:42;;;;;;;7.30;4.77;;;;;;;19.74;89.22;94643.03;4895779;29;20212;-81
2022/09/03 00:06:16;;;;;;;5.33;4.83;;;;;;;19.66;89.15;94619.84;4895432;29;20231;-78
2022/09/03 00:08:48;;;;;;;6.17;5.20;;;;;;;19.62;89.42;94629.00;4880225;29;20705;-83
2022/09/03 00:11:19;;;;;;;6.30;5.37;;;;;;;19.59;89.10;94621.59;4907881;29;20226;-82
2022/09/03 00:13:54;;;;;;;5.33;4.83;;;;;;;19.71;88.63;94644.19;4959824;28;20229;-80
2022/09/03 00:16:24;;;;;;;7.27;5.50;;;;;;;19.68;88.97;94638.59;4973731;28;20208;-80
2022/09/03 00:18:56;;;;;;;5.57;4.97;;;;;;;19.70;89.37;94647.00;4973790;28;20193;-80
2022/09/03 00:21:31;;;;;;;8.93;5.53;;;;;;;19.70;88.99;94641.81;4974316;28;20706;-82
2022/09/03 00:24:01;;;;;;;6.37;5.30;;;;;;;19.68;89.54;94636.81;4974419;28;20201;-79
2022/09/03 00:26:33;;;;;;;7.90;5.17;;;;;;;19.68;88.77;94630.81;4974629;28;20201;-80
2022/09/03 00:29:06;;;;;;;7.47;5.50;;;;;;;19.66;88.96;94631.03;4977501;28;20190;-77
2022/09/03 00:31:37;;;;;;;5.27;4.77;;;;;;;19.67;88.94;94622.22;4989621;28;20316;-80
2022/09/03 00:34:10;;;;;;;5.57;4.97;;;;;;;19.72;89.42;94624.25;4995572;28;20190;-79
2022/09/03 00:36:42;;;;;;;7.33;5.90;;;;;;;19.68;88.97;94618.63;4993847;28;20351;-80
2022/09/03 00:39:14;;;;;;;7.57;5.13;;;;;;;19.69;88.71;94622.84;4979990;28;20229;-79
2022/09/03 00:41:56;;;;;;;6.53;5.43;;;;;;;19.50;88.92;94597.59;4975112;28;20272;-77
2022/09/03 00:45:08;;;;;;;7.73;6.00;;;;;;;19.67;89.16;94618.84;4972792;28;20205;-77
2022/09/03 00:47:47;;;;;;;7.37;6.10;;;;;;;19.65;88.43;94626.84;4894867;29;20648;-79
2022/09/03 00:50:22;;;;;;;9.00;6.03;;;;;;;19.31;88.86;94583.59;4894737;29;20240;-78
2022/09/03 00:52:59;;;;;;;9.03;5.80;;;;;;;19.61;88.44;94640.38;4895385;29;20196;-78
2022/09/03 00:55:34;;;;;;;7.53;5.37;;;;;;;19.63;88.04;94630.59;4894016;29;20204;-77
2022/09/03 00:58:22;;;;;;;6.23;5.63;;;;;;;19.62;88.47;94632.41;4894329;29;20629;-80
2022/09/03 01:00:52;;;;;;;6.00;5.40;;;;;;;18.98;88.71;94535.00;4894454;29;20248;-78
2022/09/03 01:03:26;;;;;;;6.63;5.87;;;;;;;19.61;88.89;94635.19;4894465;29;20685;-77
2022/09/03 01:06:07;;;;;;;7.63;5.60;;;;;;;19.07;88.40;94558.16;4894567;29;20195;-79
2022/09/03 01:08:51;;;;;;;6.30;5.70;;;;;;;19.54;87.54;94641.13;4893870;29;20281;-80
2022/09/03 01:11:30;;;;;;;6.80;5.13;;;;;;;19.55;87.26;94632.34;4893817;29;20299;-79
2022/09/03 01:14:06;;;;;;;7.40;5.80;;;;;;;19.49;87.58;94640.91;4893634;29;20232;-82
2022/09/03 01:16:43;;;;;;;7.30;5.33;;;;;;;19.47;87.72;94637.72;4894119;29;20192;-79
2022/09/03 01:19:26;;;;;;;6.00;5.43;;;;;;;18.51;87.30;94473.56;4893948;29;20237;-77
2022/09/03 01:22:18;;;;;;;6.20;5.60;;;;;;;19.43;86.62;94646.88;4945550;28;20660;-79
2022/09/03 01:25:16;;;;;;;6.40;5.37;;;;;;;19.37;87.50;94646.84;4972375;28;20290;-81
2022/09/03 01:27:52;;;;;;;11.03;5.63;;;;;;;19.05;88.01;94611.00;4912411;29;20727;-81
2022/09/03 01:30:22;;;;;;;6.10;5.50;;;;;;;19.35;87.99;94654.81;4911687;29;20226;-80
2022/09/03 01:32:56;;;;;;;6.43;5.10;;;;;;;19.37;87.18;94670.97;4912477;29;20587;-81
2022/09/03 01:35:34;;;;;;;10.10;5.47;;;;;;;18.94;87.59;94606.34;4912105;29;20196;-79
2022/09/03 01:38:17;;;;;;;6.07;5.20;;;;;;;19.32;87.87;94675.94;4912324;29;20239;-80
2022/09/03 01:40:56;;;;;;;6.00;5.50;;;;;;;19.03;87.71;94630.31;4912366;29;20233;-80
2022/09/03 01:43:36;;;;;;;6.37;5.70;;;;;;;19.25;88.50;94673.28;4912675;29;20620;-78
2022/09/03 01:46:12;;;;;;;6.87;5.97;;;;;;;19.32;87.93;94667.38;4912275;29;20195;-81
2022/09/03 01:48:45;;;;;;;7.23;5.00;;;;;;;19.27;88.67;94658.38;4912402;29;20203;-77
2022/09/03 01:51:19;;;;;;;8.57;5.50;;;;;;;19.18;88.42;94643.16;4912248;29;20227;-81
2022/09/03 01:54:24;;;;;;;6.17;5.63;;;;;;;19.26;88.19;94656.78;4912489;29;20298;-79
2022/09/03 01:57:16;;;;;;;6.93;5.30;;;;;;;19.23;88.46;94653.75;4859907;29;20295;-82
2022/09/03 01:59:48;;;;;;;5.83;5.13;;;;;;;19.24;88.79;94655.34;4875517;29;20203;-82
2022/09/03 02:02:22;;;;;;;7.50;5.40;;;;;;;19.34;87.71;94660.97;4874231;29;20673;-77
2022/09/03 02:04:59;;;;;;;5.90;5.40;;;;;;;18.88;88.39;94588.97;4905032;29;20203;-77
2022/09/03 02:07:32;;;;;;;7.97;5.47;;;;;;;19.26;88.76;94651.59;4930793;29;20203;-76
2022/09/03 02:10:00;;;;;;;6.37;5.27;;;;;;;19.27;88.46;94648.00;4931053;29;20191;-78
2022/09/03 02:12:31;;;;;;;9.40;5.20;;;;;;;19.23;88.61;94651.16;4931218;29;20266;-78
2022/09/03 02:14:59;;;;;;;6.10;5.50;;;;;;;19.25;88.38;94667.31;4931140;29;20613;-78
2022/09/03 02:17:27;;;;;;;6.67;5.97;;;;;;;19.22;88.90;94665.13;4931020;29;20195;-78
2022/09/03 02:19:55;;;;;;;6.50;5.90;;;;;;;19.16;88.84;94655.50;4930708;29;20579;-78
2022/09/03 02:22:22;;;;;;;8.10;5.40;;;;;;;19.18;88.42;94659.53;4930978;29;20590;-78
2022/09/03 02:24:49;;;;;;;6.10;5.43;;;;;;;19.04;88.58;94626.72;4930684;29;20199;-76
2022/09/03 02:27:16;;;;;;;10.63;5.97;;;;;;;19.27;87.89;94660.97;4930489;29;20198;-78
2022/09/03 02:29:44;;;;;;;7.10;6.40;;;;;;;19.30;87.38;94660.59;4915472;29;20234;-79
2022/09/03 02:32:13;;;;;;;7.23;6.23;;;;;;;19.31;87.73;94661.38;4930620;29;20215;-78
2022/09/03 02:34:42;;;;;;;5.97;5.37;;;;;;;19.33;87.99;94668.97;4969776;28;20326;-77
2022/09/03 02:37:14;;;;;;;7.17;5.83;;;;;;;19.28;88.12;94672.13;4971381;28;20285;-78
2022/09/03 02:39:41;;;;;;;5.80;5.20;;;;;;;19.33;87.78;94667.16;4971187;28;20249;-78
2022/09/03 02:42:12;;;;;;;6.57;5.67;;;;;;;19.30;87.70;94673.56;4974343;28;20194;-81
2022/09/03 02:44:42;;;;;;;6.40;5.80;;;;;;;19.28;88.10;94667.75;4975207;28;20225;-82
2022/09/03 02:47:09;;;;;;;5.87;5.27;;;;;;;19.35;87.77;94674.78;4975046;28;20182;-80
2022/09/03 02:49:37;;;;;;;6.70;6.10;;;;;;;19.29;87.09;94671.94;4974547;28;20589;-78
2022/09/03 02:52:08;;;;;;;6.43;5.60;;;;;;;19.30;87.31;94683.13;4974969;28;20225;-81
2022/09/03 02:54:38;;;;;;;6.80;6.10;;;;;;;19.24;87.92;94681.28;4975185;28;20190;-83
2022/09/03 02:57:06;;;;;;;6.80;6.10;;;;;;;19.08;88.19;94664.22;4974949;28;20202;-81
2022/09/03 02:59:33;;;;;;;6.67;5.97;;;;;;;19.04;87.90;94648.28;4975011;28;20198;-81
2022/09/03 03:02:00;;;;;;;6.83;6.23;;;;;;;18.91;88.07;94619.69;4975072;28;20576;-80
2022/09/03 03:04:27;;;;;;;6.90;6.07;;;;;;;19.19;87.59;94661.13;4976080;28;20198;-82
2022/09/03 03:06:54;;;;;;;6.63;5.60;;;;;;;19.32;87.68;94675.94;4986481;28;20201;-80
2022/09/03 03:09:22;;;;;;;7.33;6.10;;;;;;;19.28;86.87;94674.72;4991886;28;20206;-78
2022/09/03 03:11:50;;;;;;;6.60;6.00;;;;;;;19.26;86.99;94672.34;4976797;28;20226;-81
2022/09/03 03:14:17;;;;;;;6.57;5.97;;;;;;;19.12;87.03;94662.06;4974119;28;20292;-81
2022/09/03 03:16:44;;;;;;;8.50;5.73;;;;;;;19.01;86.98;94640.88;4974636;28;20645;-81
2022/09/03 03:19:12;;;;;;;7.07;5.77;;;;;;;19.22;87.20;94670.31;4974242;28;20197;-81
2022/09/03 03:21:39;;;;;;;6.60;5.97;;;;;;;19.21;86.90;94664.34;4974940;28;20375;-82
2022/09/03 03:24:06;;;;;;;9.00;6.03;;;;;;;19.10;87.00;94649.31;4974409;28;20228;-83
2022/09/03 03:26:35;;;;;;;8.17;6.20;;;;;;;19.19;87.02;94668.09;4974511;28;20190;-81
2022/09/03 03:29:04;;;;;;;7.37;6.10;;;;;;;19.10;87.09;94657.06;4974685;28;20205;-81
2022/09/03 03:31:32;;;;;;;7.20;6.43;;;;;;;19.10;87.67;94671.84;4973997;28;20213;-81
2022/09/03 03:34:00;;;;;;;6.67;6.03;;;;;;;19.03;87.62;94661.41;4974400;28;20208;-80
2022/09/03 03:36:30;;;;;;;8.57;6.40;;;;;;;19.08;87.72;94672.00;4973815;28;20182;-82
2022/09/03 03:38:58;;;;;;;7.23;6.37;;;;;;;19.08;87.96;94663.44;4974347;28;20192;-82
2022/09/03 03:41:30;;;;;;;6.97;6.17;;;;;;;19.02;88.10;94665.00;4976228;28;20653;-79
2022/09/03 03:44:00;;;;;;;6.73;6.13;;;;;;;19.08;87.99;94671.22;4975667;28;20189;-81
2022/09/03 03:46:30;;;;;;;6.37;5.77;;;;;;;19.14;87.79;94678.25;4977281;28;20186;-81
2022/09/03 03:48:57;;;;;;;7.70;6.20;;;;;;;19.06;87.66;94661.03;4975061;28;20194;-76
2022/09/03 03:51:24;;;;;;;6.80;6.13;;;;;;;19.12;87.75;94670.63;4973487;28;20229;-78
2022/09/03 03:53:54;;;;;;;10.00;6.73;;;;;;;19.05;87.71;94667.22;4974036;28;20194;-76
2022/09/03 03:56:21;;;;;;;6.60;6.00;;;;;;;19.04;87.99;94679.38;4973900;28;20260;-76
2022/09/03 03:58:48;;;;;;;7.80;6.07;;;;;;;19.14;88.01;94679.03;4973809;28;20237;-76
2022/09/03 04:01:18;;;;;;;6.93;6.20;;;;;;;19.14;87.98;94676.44;4973842;28;20577;-77
2022/09/03 04:03:45;;;;;;;6.67;5.97;;;;;;;19.16;88.17;94684.81;4973929;28;20198;-76
2022/09/03 04:06:13;;;;;;;7.60;6.90;;;;;;;19.17;88.10;94683.84;4973183;28;20194;-76
2022/09/03 04:08:42;;;;;;;8.43;6.00;;;;;;;19.14;87.69;94679.03;4973446;28;20194;-76
2022/09/03 04:11:11;;;;;;;9.17;6.13;;;;;;;19.16;87.40;94676.25;4973761;28;20225;-78
2022/09/03 04:13:41;;;;;;;7.00;6.27;;;;;;;19.20;87.13;94672.28;4956455;28;20221;-78
2022/09/03 04:16:10;;;;;;;6.73;6.13;;;;;;;19.12;87.73;94662.06;4973984;28;20198;-78
2022/09/03 04:18:39;;;;;;;7.37;6.67;;;;;;;19.18;87.68;94672.47;4973282;28;20202;-78
2022/09/03 04:21:08;;;;;;;6.87;6.13;;;;;;;19.15;87.65;94672.06;4973749;28;20190;-77
2022/09/03 04:23:37;;;;;;;6.80;6.10;;;;;;;19.10;87.28;94670.03;4973659;28;20197;-79
2022/09/03 04:26:04;;;;;;;7.97;7.10;;;;;;;19.11;87.30;94673.44;4973652;28;20185;-79
2022/09/03 04:28:31;;;;;;;6.60;5.90;;;;;;;19.09;87.69;94667.66;4973234;28;20186;-78
2022/09/03 04:31:02;;;;;;;6.93;5.87;;;;;;;19.16;87.67;94679.63;4973241;28;20212;-76
2022/09/03 04:33:29;;;;;;;9.23;5.90;;;;;;;19.16;87.54;94682.22;4973733;28;20396;-76
2022/09/03 04:36:07;;;;;;;7.20;5.47;;;;;;;19.24;87.07;94699.44;4973259;28;20201;-78
2022/09/03 04:38:36;;;;;;;6.80;6.10;;;;;;;19.19;87.32;94699.22;4972681;28;20197;-77
2022/09/03 04:41:03;;;;;;;6.03;5.43;;;;;;;19.11;87.00;94687.19;4973257;28;20189;-77
2022/09/03 04:43:30;;;;;;;6.90;5.83;;;;;;;19.17;87.16;94701.16;4973174;28;20622;-77
2022/09/03 04:45:59;;;;;;;6.40;5.80;;;;;;;19.09;87.81;94702.16;4972422;28;20204;-77
2022/09/03 04:48:26;;;;;;;8.03;6.10;;;;;;;19.14;86.80;94715.34;4973410;28;20194;-81
2022/09/03 04:50:53;;;;;;;6.83;6.23;;;;;;;19.08;87.02;94717.88;4972829;28;20198;-81
2022/09/03 04:53:22;;;;;;;8.40;6.30;;;;;;;19.03;87.77;94723.63;4972978;28;20633;-78
2022/09/03 04:55:49;;;;;;;7.80;5.77;;;;;;;19.00;86.91;94711.06;4973144;28;20260;-82
2022/09/03 04:58:17;;;;;;;6.27;5.67;;;;;;;19.02;87.46;94730.59;4972491;28;20198;-80
2022/09/03 05:00:43;;;;;;;8.90;5.87;;;;;;;19.01;87.52;94730.78;4972572;28;20193;-81
2022/09/03 05:03:10;;;;;;;9.63;5.67;;;;;;;19.02;87.24;94730.59;4973774;28;20205;-79
2022/09/03 05:05:37;;;;;;;6.70;6.10;;;;;;;19.03;87.14;94731.41;4972378;28;20666;-82
2022/09/03 05:08:04;;;;;;;7.47;6.10;;;;;;;19.09;86.70;94730.66;4972293;28;20213;-80
2022/09/03 05:10:33;;;;;;;6.53;5.63;;;;;;;19.06;87.01;94738.81;4972681;28;20200;-79
2022/09/03 05:13:00;;;;;;;6.33;5.73;;;;;;;19.08;86.94;94742.00;4972645;28;20222;-82
2022/09/03 05:15:27;;;;;;;6.67;6.00;;;;;;;19.12;86.86;94742.44;4972572;28;20233;-81
2022/09/03 05:17:58;;;;;;;8.87;6.60;;;;;;;19.06;87.31;94736.22;4971635;28;20670;-80
2022/09/03 05:20:25;;;;;;;7.63;6.23;;;;;;;19.08;87.21;94736.00;4972337;28;20209;-81
2022/09/03 05:22:53;;;;;;;7.80;6.50;;;;;;;19.11;87.22;94739.03;4972396;28;20202;-81
2022/09/03 05:25:20;;;;;;;7.40;6.20;;;;;;;18.93;87.76;94708.41;4973237;28;20206;-81
2022/09/03 05:27:49;;;;;;;9.43;6.27;;;;;;;19.19;87.07;94743.28;4973629;28;20182;-82
2022/09/03 05:30:16;;;;;;;8.33;6.00;;;;;;;19.24;87.10;94743.50;4972615;28;20186;-81
2022/09/03 05:32:46;;;;;;;5.97;5.37;;;;;;;19.24;86.50;94738.31;4955078;28;20264;-81
2022/09/03 05:35:12;;;;;;;7.37;5.80;;;;;;;19.08;86.18;94723.84;4972167;28;20186;-80
2022/09/03 05:37:39;;;;;;;6.30;5.70;;;;;;;19.14;86.85;94751.63;4972252;28;20226;-82
2022/09/03 05:40:10;;;;;;;6.57;5.97;;;;;;;19.11;87.67;94746.00;4972845;28;20353;-81
2022/09/03 05:42:37;;;;;;;6.13;5.50;;;;;;;19.13;86.81;94750.03;4973061;28;20255;-82
2022/09/03 05:45:09;;;;;;;6.17;5.60;;;;;;;19.15;86.76;94748.03;4972335;28;20198;-81
2022/09/03 05:47:38;;;;;;;7.20;5.87;;;;;;;19.10;86.31;94747.81;4972190;28;20564;-79
2022/09/03 05:50:06;;;;;;;6.03;5.43;;;;;;;19.20;86.23;94747.47;4971983;28;20276;-82
2022/09/03 05:52:33;;;;;;;5.67;4.77;;;;;;;19.28;85.53;94749.91;4971896;28;20697;-81
2022/09/03 05:55:00;;;;;;;5.47;4.97;;;;;;;19.36;83.95;94754.97;4971381;28;20260;-81
2022/09/03 05:57:28;;;;;;;7.50;5.20;;;;;;;19.30;84.74;94759.13;4971418;28;20554;-82
2022/09/03 05:59:55;;;;;;;5.50;5.10;;;;;;;19.38;85.14;94757.34;4971271;28;20289;-81
2022/09/03 06:02:23;;;;;;;6.30;5.70;;;;;;;19.15;85.16;94703.97;4971210;28;20190;-82
2022/09/03 06:04:50;;;;;;;6.50;5.90;;;;;;;19.50;85.06;94745.47;4970686;28;20194;-81
2022/09/03 06:07:22;;;;;;;7.20;5.90;;;;;;;19.63;84.55;94761.13;4971608;28;20193;-81
2022/09/03 06:09:49;;;;;;;5.27;4.87;;;;;;;19.73;83.91;94766.78;4971073;28;20622;-81
2022/09/03 06:12:16;;;;;;;7.37;4.97;;;;;;;19.77;83.32;94755.03;4971542;28;20222;-82
2022/09/03 06:14:42;;;;;;;5.67;5.07;;;;;;;19.75;82.35;94738.84;4971576;28;20229;-81
2022/09/03 06:17:11;;;;;;;5.40;4.90;;;;;;;19.84;81.97;94765.44;4975673;28;20650;-82
2022/09/03 06:19:39;;;;;;;5.30;4.80;;;;;;;19.94;82.54;94765.84;4975431;28;20193;-82
2022/09/03 06:22:06;;;;;;;5.30;4.80;;;;;;;19.74;80.06;94718.28;4975287;28;20201;-79
2022/09/03 06:24:33;;;;;;;5.70;5.10;;;;;;;20.00;80.20;94765.09;4975949;28;20194;-78
2022/09/03 06:27:00;;;;;;;5.83;5.27;;;;;;;20.03;80.75;94762.13;4975010;28;20193;-77
2022/09/03 06:29:30;;;;;;;5.63;5.13;;;;;;;20.04;80.96;94771.50;4974943;28;20575;-77
2022/09/03 06:31:57;;;;;;;6.53;5.93;;;;;;;20.13;80.18;94768.75;4974791;28;20553;-81
2022/09/03 06:34:28;;;;;;;7.23;5.83;;;;;;;19.96;80.27;94737.94;4974968;28;20204;-81
2022/09/03 06:36:57;;;;;;;9.73;5.40;;;;;;;20.15;80.41;94771.94;4974717;28;20643;-79
2022/09/03 06:39:24;;;;;;;5.73;5.23;;;;;;;18.78;79.92;94553.06;4975354;28;20189;-81
2022/09/03 06:41:54;;;;;;;6.30;5.70;;;;;;;19.82;80.55;94714.69;4989967;28;20190;-78
2022/09/03 06:44:23;;;;;;;6.53;5.43;;;;;;;19.25;79.83;94624.03;4990086;28;20190;-78
2022/09/03 06:46:52;;;;;;;5.47;4.97;;;;;;;20.18;79.90;94759.38;4993075;28;20194;-80
2022/09/03 06:49:19;;;;;;;5.37;4.87;;;;;;;20.35;78.82;94777.19;4980216;28;20193;-80
2022/09/03 06:51:46;;;;;;;5.53;5.03;;;;;;;20.26;78.77;94779.97;4980376;28;20586;-80
2022/09/03 06:54:15;;;;;;;8.17;4.67;;;;;;;18.90;79.40;94574.03;4985712;28;20550;-81
2022/09/03 06:56:42;;;;;;;6.03;5.43;;;;;;;20.13;79.97;94756.56;4994016;28;20190;-78
2022/09/03 06:59:14;;;;;;;6.50;5.90;;;;;;;20.04;79.87;94726.56;4998599;28;20193;-79
2022/09/03 07:01:42;;;;;;;5.67;5.17;;;;;;;20.43;79.59;94777.03;4997856;28;20201;-79
2022/09/03 07:04:10;;;;;;;5.72;4.97;;;;;;;20.15;79.07;94725.19;4987290;28;20709;-79
2022/09/03 07:06:39;;;;;;;5.78;5.30;;;;;;;20.57;78.76;94790.88;4982757;28;20252;-77
2022/09/03 07:09:06;;;;;;;6.50;5.30;;;;;;;20.42;78.77;94768.44;4979743;28;20192;-78
2022/09/03 07:11:35;;;;;;;6.78;6.15;;;;;;;20.62;78.20;94791.88;4974964;28;20201;-80
2022/09/03 07:14:03;;;;;;;6.50;5.90;;;;;;;20.53;78.14;94785.25;4974264;28;20684;-79
2022/09/03 07:16:33;;;;;;;6.22;5.63;;;;;;;20.64;77.52;94789.91;4974807;28;20650;-80
2022/09/03 07:19:02;;;;;;;6.17;5.57;;;;;;;20.73;77.16;94785.31;4973772;28;20566;-82
2022/09/03 07:21:30;;;;;;;5.50;5.00;;;;;;;20.80;78.01;94786.09;4974065;28;20201;-80
2022/09/03 07:24:01;;;;;;;6.22;5.57;;;;;;;20.85;77.82;94775.91;4973957;28;20197;-78
2022/09/03 07:26:31;;;;;;;6.65;5.05;;;;;;;21.16;76.83;94788.34;4972957;28;20226;-79
2022/09/03 07:29:02;;;;;;;5.40;4.90;;;;;;;21.13;75.64;94774.94;4973420;28;20205;-79
2022/09/03 07:31:32;;;;;;;5.75;5.25;;;;;;;21.18;74.57;94781.13;4974079;28;20197;-79
2022/09/03 07:34:02;;;;;;;5.22;4.68;;;;;;;21.27;74.54;94805.91;4973651;28;20739;-80
2022/09/03 07:36:30;;;;;;;4.97;4.55;;;;;;;20.45;73.55;94676.28;4973710;28;20192;-79
2022/09/03 07:39:00;;;;;;;4.60;4.28;;;;;;;21.08;74.12;94777.34;4973259;28;20202;-79
2022/09/03 07:41:30;;;;;;;5.20;4.70;;;;;;;21.23;74.48;94807.31;4973649;28;20202;-81
2022/09/03 07:44:04;;;;;;;6.35;5.75;;;;;;;21.26;74.94;94806.13;4973257;28;20307;-79
2022/09/03 07:46:32;;;;;;;5.63;5.15;;;;;;;21.33;75.04;94809.56;4973607;28;20201;-80
2022/09/03 07:49:01;;;;;;;6.82;6.13;;;;;;;21.34;75.51;94803.34;4973330;28;20198;-77
2022/09/03 07:51:33;;;;;;;5.60;5.10;;;;;;;20.76;74.34;94712.13;4975348;28;20266;-81
2022/09/03 07:54:05;;;;;;;5.85;5.35;;;;;;;21.44;74.15;94814.16;4973082;28;20237;-80
2022/09/03 07:56:33;;;;;;;5.90;5.35;;;;;;;21.29;73.77;94792.72;4973649;28;20201;-81
2022/09/03 07:59:03;;;;;;;6.38;5.25;;;;;;;21.59;74.39;94816.53;4973030;28;20749;-79
2022/09/03 08:01:31;;;;;;;5.13;4.72;;;;;;;21.73;74.13;94812.91;4973430;28;20185;-79
2022/09/03 08:04:03;;;;;;;5.28;4.88;;;;;;;21.98;73.57;94812.25;4972787;28;20193;-80
2022/09/03 08:06:31;;;;;;;5.25;4.82;;;;;;;22.16;73.55;94822.84;4973046;28;20313;-79
2022/09/03 08:09:00;;;;;;;5.85;5.22;;;;;;;21.60;72.26;94708.03;4974051;28;20190;-81
2022/09/03 08:11:30;;;;;;;5.00;4.53;;;;;;;22.23;72.09;94796.75;4973486;28;20185;-82
2022/09/03 08:14:01;;;;;;;6.35;4.90;;;;;;;22.16;71.08;94767.34;4972637;28;20242;-80
2022/09/03 08:16:31;;;;;;;5.80;4.45;;;;;;;21.94;71.53;94725.91;4973178;28;20225;-81
2022/09/03 08:18:59;;;;;;;4.70;4.30;;;;;;;22.60;70.09;94818.63;4972530;28;20194;-81
2022/09/03 08:21:27;;;;;;;4.72;4.32;;;;;;;22.56;69.50;94829.69;4972259;28;20193;-80
2022/09/03 08:24:04;;;;;;;5.05;4.55;;;;;;;22.59;69.06;94822.25;4972238;28;20205;-81
2022/09/03 08:26:41;;;;;;;5.40;4.60;;;;;;;22.65;70.47;94813.56;4972371;28;20262;-80
2022/09/03 08:29:12;;;;;;;5.18;4.70;;;;;;;22.34;70.75;94730.97;4974190;28;20189;-82
2022/09/03 08:31:40;;;;;;;5.20;4.80;;;;;;;22.95;69.77;94815.63;4982040;28;20200;-80
2022/09/03 08:34:09;;;;;;;5.47;4.72;;;;;;;22.99;69.21;94809.00;4973286;28;20235;-77
2022/09/03 08:36:38;;;;;;;4.95;4.57;;;;;;;23.07;67.69;94815.75;4972484;28;20205;-78
2022/09/03 08:39:08;;;;;;;5.13;4.72;;;;;;;23.08;67.55;94812.94;4972230;28;20194;-78
2022/09/03 08:41:46;;;;;;;5.30;4.80;;;;;;;23.01;67.57;94789.50;4972842;28;20197;-81
2022/09/03 08:44:23;;;;;;;4.88;4.47;;;;;;;23.16;67.73;94783.16;4972069;28;20197;-79
2022/09/03 08:46:55;;;;;;;4.47;4.07;;;;;;;23.49;66.67;94812.41;4972201;28;20197;-81
2022/09/03 08:49:27;;;;;;;5.13;4.72;;;;;;;23.09;66.40;94745.91;4972509;28;20634;-79
2022/09/03 08:52:01;;;;;;;5.50;4.95;;;;;;;23.12;66.91;94732.44;4972546;28;20567;-79
2022/09/03 08:54:31;;;;;;;4.75;4.35;;;;;;;23.65;65.93;94813.66;4972510;28;20284;-81
2022/09/03 08:57:01;;;;;;;4.82;4.35;;;;;;;23.72;64.72;94817.03;4973105;28;20182;-77
2022/09/03 08:59:29;;;;;;;4.72;4.35;;;;;;;23.53;64.82;94816.19;4974207;28;20197;-80
2022/09/03 09:02:16;;;;;;;4.60;4.20;;;;;;;23.08;64.33;94758.16;4974647;28;20577;-78
2022/09/03 09:04:58;;;;;;;4.50;4.10;;;;;;;23.27;65.78;94822.44;4975217;28;20276;-80
2022/09/03 09:07:31;;;;;;;5.18;4.78;;;;;;;23.20;66.50;94818.28;4974803;28;20363;-78
2022/09/03 09:10:05;;;;;;;4.82;4.43;;;;;;;23.21;66.93;94815.44;4974038;28;20296;-77
2022/09/03 09:12:40;;;;;;;5.78;5.28;;;;;;;23.26;67.04;94822.63;4974368;28;20304;-79
2022/09/03 09:15:13;;;;;;;7.10;4.82;;;;;;;23.28;66.68;94818.81;4972985;28;20252;-82
2022/09/03 09:17:53;;;;;;;5.13;4.70;;;;;;;23.33;67.00;94818.16;4975087;28;20194;-79
2022/09/03 09:20:29;;;;;;;5.13;4.72;;;;;;;23.36;66.13;94815.13;4973179;28;20196;-80
2022/09/03 09:23:01;;;;;;;5.55;5.07;;;;;;;22.95;66.72;94745.22;4971522;28;20197;-81
2022/09/03 09:25:30;;;;;;;5.38;4.88;;;;;;;23.41;66.70;94824.94;4971940;28;20193;-79
2022/09/03 09:28:00;;;;;;;4.82;4.43;;;;;;;23.44;66.71;94834.91;4971567;28;20232;-81
2022/09/03 09:30:29;;;;;;;4.93;4.47;;;;;;;23.43;66.97;94825.50;4971661;28;20201;-80
2022/09/03 09:32:59;;;;;;;6.35;4.38;;;;;;;23.41;66.16;94827.53;4971947;28;20217;-80
2022/09/03 09:35:26;;;;;;;4.32;4.03;;;;;;;23.39;66.18;94830.34;4971780;28;20547;-81
2022/09/03 09:37:55;;;;;;;4.35;4.05;;;;;;;23.22;65.38;94827.47;4970955;28;20193;-79
2022/09/03 09:40:32;;;;;;;4.88;3.85;;;;;;;23.19;65.87;94827.91;4971436;28;20198;-81
2022/09/03 09:43:07;;;;;;;6.75;4.13;;;;;;;23.22;66.88;94824.84;4971632;28;20729;-81
2022/09/03 09:45:34;;;;;;;5.00;4.60;;;;;;;23.20;67.36;94820.88;4971268;28;20228;-76
2022/09/03 09:48:09;;;;;;;5.10;4.70;;;;;;;23.29;67.75;94825.63;4971466;28;20205;-80
2022/09/03 09:50:36;;;;;;;5.07;4.68;;;;;;;23.19;67.72;94808.84;4970594;28;20228;-83
2022/09/03 09:53:13;;;;;;;5.00;4.60;;;;;;;23.42;67.86;94824.72;4970661;28;20232;-82
2022/09/03 09:55:52;;;;;;;6.20;5.20;;;;;;;23.54;67.72;94827.44;4970735;28;20732;-78
2022/09/03 09:58:23;;;;;;;5.30;4.80;;;;;;;23.60;67.77;94828.38;4971065;28;20202;-79
2022/09/03 10:01:06;;;;;;;4.80;4.40;;;;;;;22.39;65.96;94639.91;4970770;28;20281;-78
2022/09/03 10:03:37;;;;;;;4.93;4.53;;;;;;;23.69;66.01;94834.94;4970647;28;20677;-77
2022/09/03 10:08:54;;;;;;;4.57;4.28;;;;;;;23.72;65.68;94832.69;4971246;28;20708;-79
2022/09/03 10:11:26;;;;;;;4.80;4.40;;;;;;;23.39;65.45;94782.56;4971345;28;20209;-77
2022/09/03 10:13:56;;;;;;;5.28;4.80;;;;;;;23.60;65.67;94821.31;4965242;28;20242;-78
2022/09/03 10:16:36;;;;;;;4.80;4.40;;;;;;;23.19;65.24;94773.13;4951170;29;20222;-80
2022/09/03 10:19:10;;;;;;;5.15;4.68;;;;;;;23.42;66.19;94824.72;4951398;29;20654;-77
2022/09/03 10:21:45;;;;;;;5.68;5.18;;;;;;;23.34;67.42;94818.94;4951479;29;20254;-79
2022/09/03 10:24:30;;;;;;;5.65;5.15;;;;;;;23.45;66.33;94816.44;4951207;29;20224;-78
2022/09/03 10:26:57;;;;;;;4.75;4.35;;;;;;;23.32;65.68;94815.78;4951559;29;20187;-77
2022/09/03 10:29:28;;;;;;;5.88;5.25;;;;;;;23.30;67.17;94813.34;4950860;29;20662;-78
2022/09/03 10:32:08;;;;;;;5.50;5.00;;;;;;;23.37;68.03;94816.72;4951331;29;20195;-79
2022/09/03 10:34:45;;;;;;;4.85;4.38;;;;;;;22.70;66.62;94706.84;4950930;29;20728;-78
2022/09/03 10:37:23;;;;;;;5.30;4.80;;;;;;;23.25;65.43;94782.69;4951147;29;20201;-79
2022/09/03 10:40:05;;;;;;;5.28;4.88;;;;;;;23.45;66.31;94813.06;4950865;29;20210;-77
2022/09/03 10:42:45;;;;;;;5.13;4.72;;;;;;;23.45;65.92;94792.16;4951060;29;20190;-79
2022/09/03 10:45:19;;;;;;;4.72;4.32;;;;;;;23.59;64.42;94811.13;4951333;29;20562;-78
2022/09/03 10:48:14;;;;;;;5.15;4.30;;;;;;;23.09;65.26;94738.06;4951267;29;20198;-78
2022/09/03 10:50:51;;;;;;;4.97;4.43;;;;;;;23.66;64.39;94817.06;4951955;29;20222;-79
2022/09/03 10:53:32;;;;;;;4.95;4.55;;;;;;;23.63;64.47;94812.28;4951405;29;20766;-82
2022/09/03 10:56:07;;;;;;;5.05;4.65;;;;;;;22.22;64.42;94594.53;4951325;29;20257;-80
2022/09/03 10:58:54;;;;;;;5.50;4.03;;;;;;;23.57;64.38;94819.13;4951179;29;20194;-81
2022/09/03 11:01:34;;;;;;;4.55;4.15;;;;;;;22.68;64.81;94676.81;4951159;28;20254;-79
2022/09/03 11:04:23;;;;;;;4.40;4.00;;;;;;;22.64;64.86;94670.41;4954829;29;20190;-79
2022/09/03 11:07:01;;;;;;;5.05;4.65;;;;;;;22.39;65.37;94639.13;4955070;29;20197;-79
2022/09/03 11:09:39;;;;;;;5.20;4.78;;;;;;;22.78;66.29;94701.38;4954808;29;20285;-81
2022/09/03 11:12:24;;;;;;;4.93;4.53;;;;;;;22.77;65.66;94691.16;4954786;29;20198;-81
2022/09/03 11:14:54;;;;;;;4.95;4.45;;;;;;;23.27;65.23;94769.41;4967721;28;20229;-82
2022/09/03 11:17:26;;;;;;;5.53;4.93;;;;;;;23.33;66.36;94786.84;4973996;28;20650;-78
2022/09/03 11:19:58;;;;;;;5.03;4.63;;;;;;;23.54;66.87;94807.34;4973677;28;20576;-81
2022/09/03 11:22:28;;;;;;;5.65;5.25;;;;;;;23.76;66.67;94820.00;4974109;28;20216;-78
2022/09/03 11:24:59;;;;;;;4.38;4.07;;;;;;;23.79;64.49;94819.56;4973528;28;20201;-82
2022/09/03 11:27:44;;;;;;;4.82;4.43;;;;;;;23.77;65.24;94811.94;4973639;28;20209;-80
2022/09/03 11:30:14;;;;;;;5.10;4.70;;;;;;;23.51;65.34;94759.97;4969183;28;20570;-81
2022/09/03 11:32:49;;;;;;;4.90;4.50;;;;;;;23.96;65.03;94819.78;4973283;28;20197;-82
2022/09/03 11:35:24;;;;;;;5.57;4.68;;;;;;;23.63;64.32;94766.06;4974904;28;20197;-81
2022/09/03 11:38:12;;;;;;;4.30;4.00;;;;;;;23.88;64.14;94813.06;4973655;28;20241;-81
2022/09/03 11:41:02;;;;;;;4.63;4.22;;;;;;;23.35;64.00;94718.75;4973411;28;20204;-82
2022/09/03 11:43:34;;;;;;;4.55;4.15;;;;;;;24.01;63.76;94825.97;4974115;28;20198;-83
2022/09/03 11:46:16;;;;;;;4.40;4.00;;;;;;;22.95;63.86;94651.31;4973686;28;20190;-81
2022/09/03 11:48:56;;;;;;;4.57;4.18;;;;;;;23.23;64.06;94690.00;4973736;28;20245;-83
2022/09/03 11:51:36;;;;;;;5.40;4.90;;;;;;;23.87;64.20;94805.41;4975246;28;20585;-78
2022/09/03 11:54:08;;;;;;;5.00;4.60;;;;;;;24.10;64.41;94823.88;4973039;28;20709;-77
2022/09/03 11:56:35;;;;;;;6.75;4.85;;;;;;;23.88;63.99;94784.31;4973513;28;20245;-79
2022/09/03 11:59:22;;;;;;;4.65;4.25;;;;;;;24.17;63.37;94821.16;4973344;28;20197;-79